sensor_id;sensor_type;location;lat;lon;timestamp;P1;durP1;ratioP1;P2;durP2;ratioP2
22441;SDS011;11388;54.456;9.752;2022-11-15T00:00:08;31.98;;;21.33;;
22441;SDS011;11388;54.456;9.752;2022-11-15T00:02:34;27.45;;;19.67;;
22441;SDS011;11388;54.456;9.752;2022-11-15T00:05:00;32.08;;;20.67;;
22441;SDS011;11388;54.456;9.752;2022-11-15T00:07:26;28.08;;;19.85;;
22441;SDS011;11388;54.456;9.752;2022-11-15T00:09:52;29.60;;;21.08;;
22441;SDS011;11388;54.456;9.752;2022-11-15T00:12:17;29.20;;;20.13;;
22441;SDS011;11388;54.456;9.752;2022-11-15T00:14:43;30.20;;;21.17;;
22441;SDS011;11388;54.456;9.752;2022-11-15T00:17:08;28.50;;;19.77;;
22441;SDS011;11388;54.456;9.752;2022-11-15T00:19:34;27.02;;;19.65;;
22441;SDS011;11388;54.456;9.752;2022-11-15T00:22:00;26.10;;;19.00;;
22441;SDS011;11388;54.456;9.752;2022-11-15T00:24:25;33.15;;;22.65;;
22441;SDS011;11388;54.456;9.752;2022-11-15T00:26:51;25.63;;;19.38;;
22441;SDS011;11388;54.456;9.752;2022-11-15T00:29:17;33.08;;;21.98;;
22441;SDS011;11388;54.456;9.752;2022-11-15T00:31:42;29.40;;;21.13;;
22441;SDS011;11388;54.456;9.752;2022-11-15T00:34:09;28.02;;;19.58;;
22441;SDS011;11388;54.456;9.752;2022-11-15T00:36:35;27.25;;;18.98;;
22441;SDS011;11388;54.456;9.752;2022-11-15T00:39:03;26.58;;;19.05;;
22441;SDS011;11388;54.456;9.752;2022-11-15T00:41:30;25.15;;;18.85;;
22441;SDS011;11388;54.456;9.752;2022-11-15T00:43:56;30.48;;;20.73;;
22441;SDS011;11388;54.456;9.752;2022-11-15T00:46:22;28.48;;;20.15;;
22441;SDS011;11388;54.456;9.752;2022-11-15T00:48:47;28.23;;;20.45;;
22441;SDS011;11388;54.456;9.752;2022-11-15T00:51:28;29.50;;;20.45;;
22441;SDS011;11388;54.456;9.752;2022-11-15T00:53:54;26.52;;;18.65;;
22441;SDS011;11388;54.456;9.752;2022-11-15T00:56:20;25.50;;;18.80;;
22441;SDS011;11388;54.456;9.752;2022-11-15T00:58:46;25.50;;;18.77;;
22441;SDS011;11388;54.456;9.752;2022-11-15T01:01:13;26.48;;;19.70;;
22441;SDS011;11388;54.456;9.752;2022-11-15T01:03:40;24.65;;;19.00;;
22441;SDS011;11388;54.456;9.752;2022-11-15T01:06:07;24.90;;;18.17;;
22441;SDS011;11388;54.456;9.752;2022-11-15T01:08:33;27.65;;;19.08;;
22441;SDS011;11388;54.456;9.752;2022-11-15T01:11:00;24.83;;;18.33;;
22441;SDS011;11388;54.456;9.752;2022-11-15T01:13:31;24.50;;;17.95;;
22441;SDS011;11388;54.456;9.752;2022-11-15T01:15:58;24.73;;;18.50;;
22441;SDS011;11388;54.456;9.752;2022-11-15T01:18:24;24.45;;;18.67;;
22441;SDS011;11388;54.456;9.752;2022-11-15T01:20:50;23.02;;;17.30;;
22441;SDS011;11388;54.456;9.752;2022-11-15T01:23:16;24.25;;;17.35;;
22441;SDS011;11388;54.456;9.752;2022-11-15T01:25:41;23.52;;;17.70;;
22441;SDS011;11388;54.456;9.752;2022-11-15T01:28:07;22.00;;;16.80;;
22441;SDS011;11388;54.456;9.752;2022-11-15T01:30:33;21.17;;;16.50;;
22441;SDS011;11388;54.456;9.752;2022-11-15T01:32:58;19.95;;;15.45;;
22441;SDS011;11388;54.456;9.752;2022-11-15T01:35:24;22.75;;;16.80;;
22441;SDS011;11388;54.456;9.752;2022-11-15T01:37:50;23.42;;;17.77;;
22441;SDS011;11388;54.456;9.752;2022-11-15T01:40:15;22.45;;;15.90;;
22441;SDS011;11388;54.456;9.752;2022-11-15T01:42:41;23.65;;;18.17;;
22441;SDS011;11388;54.456;9.752;2022-11-15T01:45:10;22.90;;;16.70;;
22441;SDS011;11388;54.456;9.752;2022-11-15T01:47:40;21.90;;;15.05;;
22441;SDS011;11388;54.456;9.752;2022-11-15T01:50:09;18.70;;;14.65;;
22441;SDS011;11388;54.456;9.752;2022-11-15T01:52:38;20.88;;;15.98;;
22441;SDS011;11388;54.456;9.752;2022-11-15T01:55:08;21.13;;;15.77;;
22441;SDS011;11388;54.456;9.752;2022-11-15T01:57:43;23.48;;;17.08;;
22441;SDS011;11388;54.456;9.752;2022-11-15T02:00:12;19.45;;;15.20;;
22441;SDS011;11388;54.456;9.752;2022-11-15T02:02:39;21.88;;;17.23;;
22441;SDS011;11388;54.456;9.752;2022-11-15T02:05:05;25.00;;;17.67;;
22441;SDS011;11388;54.456;9.752;2022-11-15T02:07:31;20.67;;;15.90;;
22441;SDS011;11388;54.456;9.752;2022-11-15T02:09:59;26.15;;;17.63;;
22441;SDS011;11388;54.456;9.752;2022-11-15T02:12:32;20.02;;;15.63;;
22441;SDS011;11388;54.456;9.752;2022-11-15T02:14:58;24.17;;;16.83;;
22441;SDS011;11388;54.456;9.752;2022-11-15T02:29:03;28.67;;;20.10;;
22441;SDS011;11388;54.456;9.752;2022-11-15T02:34:53;26.25;;;19.05;;
22441;SDS011;11388;54.456;9.752;2022-11-15T02:40:03;25.48;;;19.70;;
22441;SDS011;11388;54.456;9.752;2022-11-15T02:42:42;26.42;;;20.02;;
22441;SDS011;11388;54.456;9.752;2022-11-15T02:45:35;28.23;;;20.35;;
22441;SDS011;11388;54.456;9.752;2022-11-15T02:48:06;27.52;;;18.98;;
22441;SDS011;11388;54.456;9.752;2022-11-15T02:50:34;24.73;;;19.08;;
22441;SDS011;11388;54.456;9.752;2022-11-15T02:53:00;28.67;;;19.75;;
22441;SDS011;11388;54.456;9.752;2022-11-15T02:55:30;27.02;;;19.77;;
22441;SDS011;11388;54.456;9.752;2022-11-15T03:03:36;28.15;;;20.17;;
22441;SDS011;11388;54.456;9.752;2022-11-15T03:06:42;29.38;;;20.83;;
22441;SDS011;11388;54.456;9.752;2022-11-15T03:09:23;27.33;;;20.33;;
22441;SDS011;11388;54.456;9.752;2022-11-15T03:20:06;24.83;;;18.58;;
22441;SDS011;11388;54.456;9.752;2022-11-15T03:22:36;21.20;;;16.27;;
22441;SDS011;11388;54.456;9.752;2022-11-15T03:25:05;22.75;;;17.33;;
22441;SDS011;11388;54.456;9.752;2022-11-15T03:27:35;19.55;;;15.50;;
22441;SDS011;11388;54.456;9.752;2022-11-15T03:30:06;20.90;;;17.05;;
22441;SDS011;11388;54.456;9.752;2022-11-15T03:32:46;23.27;;;17.90;;
22441;SDS011;11388;54.456;9.752;2022-11-15T03:35:18;23.13;;;18.05;;
22441;SDS011;11388;54.456;9.752;2022-11-15T03:40:53;25.27;;;19.30;;
22441;SDS011;11388;54.456;9.752;2022-11-15T03:46:36;29.15;;;20.27;;
22441;SDS011;11388;54.456;9.752;2022-11-15T03:48:46;27.42;;;20.38;;
22441;SDS011;11388;54.456;9.752;2022-11-15T03:51:17;26.70;;;19.67;;
22441;SDS011;11388;54.456;9.752;2022-11-15T03:53:43;25.63;;;19.25;;
22441;SDS011;11388;54.456;9.752;2022-11-15T03:56:09;26.15;;;19.65;;
22441;SDS011;11388;54.456;9.752;2022-11-15T03:58:34;23.40;;;18.08;;
22441;SDS011;11388;54.456;9.752;2022-11-15T04:01:00;23.55;;;17.45;;
22441;SDS011;11388;54.456;9.752;2022-11-15T04:03:26;22.58;;;16.95;;
22441;SDS011;11388;54.456;9.752;2022-11-15T04:05:51;24.67;;;18.70;;
22441;SDS011;11388;54.456;9.752;2022-11-15T04:08:17;23.92;;;17.88;;
22441;SDS011;11388;54.456;9.752;2022-11-15T04:10:43;28.13;;;19.98;;
22441;SDS011;11388;54.456;9.752;2022-11-15T04:13:08;27.13;;;20.05;;
22441;SDS011;11388;54.456;9.752;2022-11-15T04:15:34;23.55;;;18.42;;
22441;SDS011;11388;54.456;9.752;2022-11-15T04:18:00;26.88;;;20.00;;
22441;SDS011;11388;54.456;9.752;2022-11-15T04:20:27;21.67;;;17.42;;
22441;SDS011;11388;54.456;9.752;2022-11-15T04:23:20;27.15;;;19.58;;
22441;SDS011;11388;54.456;9.752;2022-11-15T04:26:10;23.80;;;17.92;;
22441;SDS011;11388;54.456;9.752;2022-11-15T04:28:37;23.67;;;18.48;;
22441;SDS011;11388;54.456;9.752;2022-11-15T04:31:22;27.00;;;18.70;;
22441;SDS011;11388;54.456;9.752;2022-11-15T04:33:47;23.48;;;17.75;;
22441;SDS011;11388;54.456;9.752;2022-11-15T04:36:13;25.48;;;18.52;;
22441;SDS011;11388;54.456;9.752;2022-11-15T04:38:57;21.48;;;16.95;;
22441;SDS011;11388;54.456;9.752;2022-11-15T04:44:00;21.77;;;17.23;;
22441;SDS011;11388;54.456;9.752;2022-11-15T04:46:26;21.27;;;16.65;;
22441;SDS011;11388;54.456;9.752;2022-11-15T04:48:52;20.92;;;16.35;;
22441;SDS011;11388;54.456;9.752;2022-11-15T04:53:54;25.00;;;19.30;;
22441;SDS011;11388;54.456;9.752;2022-11-15T04:56:20;22.27;;;17.27;;
22441;SDS011;11388;54.456;9.752;2022-11-15T04:58:48;22.73;;;18.13;;
22441;SDS011;11388;54.456;9.752;2022-11-15T05:01:14;22.00;;;17.13;;
22441;SDS011;11388;54.456;9.752;2022-11-15T05:03:41;25.55;;;19.20;;
22441;SDS011;11388;54.456;9.752;2022-11-15T05:06:25;25.17;;;18.98;;
22441;SDS011;11388;54.456;9.752;2022-11-15T05:08:51;21.92;;;16.15;;
22441;SDS011;11388;54.456;9.752;2022-11-15T05:11:17;24.15;;;17.55;;
22441;SDS011;11388;54.456;9.752;2022-11-15T05:13:43;21.38;;;16.50;;
22441;SDS011;11388;54.456;9.752;2022-11-15T05:16:08;21.10;;;16.50;;
22441;SDS011;11388;54.456;9.752;2022-11-15T05:18:34;22.30;;;16.92;;
22441;SDS011;11388;54.456;9.752;2022-11-15T05:21:06;23.92;;;18.00;;
22441;SDS011;11388;54.456;9.752;2022-11-15T05:23:34;23.63;;;16.92;;
22441;SDS011;11388;54.456;9.752;2022-11-15T05:26:00;20.17;;;16.23;;
22441;SDS011;11388;54.456;9.752;2022-11-15T05:28:26;20.90;;;16.70;;
22441;SDS011;11388;54.456;9.752;2022-11-15T05:30:52;20.38;;;16.65;;
22441;SDS011;11388;54.456;9.752;2022-11-15T05:33:18;21.92;;;17.25;;
22441;SDS011;11388;54.456;9.752;2022-11-15T05:35:48;21.05;;;16.02;;
22441;SDS011;11388;54.456;9.752;2022-11-15T05:38:20;22.65;;;17.08;;
22441;SDS011;11388;54.456;9.752;2022-11-15T05:40:45;22.75;;;17.00;;
22441;SDS011;11388;54.456;9.752;2022-11-15T05:43:11;19.45;;;15.18;;
22441;SDS011;11388;54.456;9.752;2022-11-15T05:45:37;19.85;;;14.32;;
22441;SDS011;11388;54.456;9.752;2022-11-15T05:48:04;18.23;;;14.73;;
22441;SDS011;11388;54.456;9.752;2022-11-15T05:50:33;20.67;;;14.80;;
22441;SDS011;11388;54.456;9.752;2022-11-15T05:53:00;19.92;;;14.85;;
22441;SDS011;11388;54.456;9.752;2022-11-15T05:55:27;18.58;;;14.77;;
22441;SDS011;11388;54.456;9.752;2022-11-15T05:57:52;18.95;;;15.05;;
22441;SDS011;11388;54.456;9.752;2022-11-15T06:03:01;15.10;;;13.05;;
22441;SDS011;11388;54.456;9.752;2022-11-15T06:05:27;19.48;;;15.25;;
22441;SDS011;11388;54.456;9.752;2022-11-15T06:07:56;19.75;;;15.48;;
22441;SDS011;11388;54.456;9.752;2022-11-15T06:10:23;19.25;;;15.30;;
22441;SDS011;11388;54.456;9.752;2022-11-15T06:13:02;19.33;;;15.23;;
22441;SDS011;11388;54.456;9.752;2022-11-15T06:15:29;19.30;;;14.77;;
22441;SDS011;11388;54.456;9.752;2022-11-15T06:17:56;17.15;;;14.15;;
22441;SDS011;11388;54.456;9.752;2022-11-15T06:20:23;17.58;;;14.07;;
22441;SDS011;11388;54.456;9.752;2022-11-15T06:23:02;20.65;;;15.80;;
22441;SDS011;11388;54.456;9.752;2022-11-15T06:25:29;18.05;;;14.88;;
22441;SDS011;11388;54.456;9.752;2022-11-15T06:27:56;17.02;;;14.05;;
22441;SDS011;11388;54.456;9.752;2022-11-15T06:30:23;16.17;;;13.30;;
22441;SDS011;11388;54.456;9.752;2022-11-15T06:32:50;17.05;;;13.48;;
22441;SDS011;11388;54.456;9.752;2022-11-15T06:35:16;17.10;;;14.02;;
22441;SDS011;11388;54.456;9.752;2022-11-15T06:37:42;17.67;;;14.07;;
22441;SDS011;11388;54.456;9.752;2022-11-15T06:40:08;19.70;;;14.50;;
22441;SDS011;11388;54.456;9.752;2022-11-15T06:42:35;21.42;;;16.00;;
22441;SDS011;11388;54.456;9.752;2022-11-15T06:45:01;17.52;;;14.75;;
22441;SDS011;11388;54.456;9.752;2022-11-15T06:47:27;17.30;;;14.00;;
22441;SDS011;11388;54.456;9.752;2022-11-15T06:49:52;17.90;;;14.25;;
22441;SDS011;11388;54.456;9.752;2022-11-15T06:52:18;17.65;;;15.23;;
22441;SDS011;11388;54.456;9.752;2022-11-15T06:54:44;21.85;;;15.90;;
22441;SDS011;11388;54.456;9.752;2022-11-15T06:57:10;17.90;;;14.20;;
22441;SDS011;11388;54.456;9.752;2022-11-15T06:59:36;16.65;;;13.95;;
22441;SDS011;11388;54.456;9.752;2022-11-15T07:02:15;17.30;;;14.02;;
22441;SDS011;11388;54.456;9.752;2022-11-15T07:04:41;17.13;;;13.85;;
22441;SDS011;11388;54.456;9.752;2022-11-15T07:07:07;19.23;;;13.15;;
22441;SDS011;11388;54.456;9.752;2022-11-15T07:09:33;17.67;;;13.93;;
22441;SDS011;11388;54.456;9.752;2022-11-15T07:11:58;20.80;;;15.50;;
22441;SDS011;11388;54.456;9.752;2022-11-15T07:14:24;18.70;;;14.77;;
22441;SDS011;11388;54.456;9.752;2022-11-15T07:16:50;17.30;;;14.23;;
22441;SDS011;11388;54.456;9.752;2022-11-15T07:19:15;17.40;;;14.40;;
22441;SDS011;11388;54.456;9.752;2022-11-15T07:21:41;18.02;;;14.07;;
22441;SDS011;11388;54.456;9.752;2022-11-15T07:24:07;19.33;;;15.60;;
22441;SDS011;11388;54.456;9.752;2022-11-15T07:26:32;21.77;;;16.08;;
22441;SDS011;11388;54.456;9.752;2022-11-15T07:28:58;25.13;;;18.05;;
22441;SDS011;11388;54.456;9.752;2022-11-15T07:31:24;21.55;;;16.45;;
22441;SDS011;11388;54.456;9.752;2022-11-15T07:33:50;22.58;;;16.85;;
22441;SDS011;11388;54.456;9.752;2022-11-15T07:36:16;22.73;;;16.80;;
22441;SDS011;11388;54.456;9.752;2022-11-15T07:38:41;24.38;;;18.15;;
22441;SDS011;11388;54.456;9.752;2022-11-15T07:41:07;22.90;;;17.25;;
22441;SDS011;11388;54.456;9.752;2022-11-15T07:43:33;24.88;;;17.45;;
22441;SDS011;11388;54.456;9.752;2022-11-15T07:46:03;25.45;;;18.58;;
22441;SDS011;11388;54.456;9.752;2022-11-15T07:48:34;29.15;;;18.88;;
22441;SDS011;11388;54.456;9.752;2022-11-15T07:51:00;23.58;;;17.88;;
22441;SDS011;11388;54.456;9.752;2022-11-15T07:53:27;25.33;;;18.45;;
22441;SDS011;11388;54.456;9.752;2022-11-15T07:55:52;23.20;;;17.88;;
22441;SDS011;11388;54.456;9.752;2022-11-15T07:58:18;26.08;;;18.02;;
22441;SDS011;11388;54.456;9.752;2022-11-15T08:00:44;23.10;;;16.95;;
22441;SDS011;11388;54.456;9.752;2022-11-15T08:03:14;21.60;;;16.98;;
22441;SDS011;11388;54.456;9.752;2022-11-15T08:05:41;23.25;;;16.65;;
22441;SDS011;11388;54.456;9.752;2022-11-15T08:08:08;24.80;;;17.85;;
22441;SDS011;11388;54.456;9.752;2022-11-15T08:10:35;21.30;;;16.17;;
22441;SDS011;11388;54.456;9.752;2022-11-15T08:13:03;25.08;;;18.45;;
22441;SDS011;11388;54.456;9.752;2022-11-15T08:15:33;25.80;;;18.05;;
22441;SDS011;11388;54.456;9.752;2022-11-15T08:18:00;22.58;;;17.70;;
22441;SDS011;11388;54.456;9.752;2022-11-15T08:20:29;24.38;;;17.85;;
22441;SDS011;11388;54.456;9.752;2022-11-15T08:22:56;23.30;;;16.63;;
22441;SDS011;11388;54.456;9.752;2022-11-15T08:25:23;24.58;;;17.63;;
22441;SDS011;11388;54.456;9.752;2022-11-15T08:27:54;22.75;;;16.40;;
22441;SDS011;11388;54.456;9.752;2022-11-15T08:30:21;24.98;;;17.95;;
22441;SDS011;11388;54.456;9.752;2022-11-15T08:32:48;21.10;;;16.83;;
22441;SDS011;11388;54.456;9.752;2022-11-15T08:35:15;28.48;;;20.02;;
22441;SDS011;11388;54.456;9.752;2022-11-15T08:37:41;20.70;;;16.30;;
22441;SDS011;11388;54.456;9.752;2022-11-15T08:40:07;22.55;;;17.33;;
22441;SDS011;11388;54.456;9.752;2022-11-15T08:42:33;23.23;;;16.67;;
22441;SDS011;11388;54.456;9.752;2022-11-15T08:44:59;21.05;;;16.05;;
22441;SDS011;11388;54.456;9.752;2022-11-15T08:47:24;24.30;;;17.35;;
22441;SDS011;11388;54.456;9.752;2022-11-15T08:49:50;21.70;;;16.92;;
22441;SDS011;11388;54.456;9.752;2022-11-15T08:52:16;20.27;;;15.57;;
22441;SDS011;11388;54.456;9.752;2022-11-15T08:54:41;20.13;;;15.45;;
22441;SDS011;11388;54.456;9.752;2022-11-15T08:57:07;25.30;;;17.27;;
22441;SDS011;11388;54.456;9.752;2022-11-15T08:59:34;22.83;;;16.60;;
22441;SDS011;11388;54.456;9.752;2022-11-15T09:04:31;21.10;;;15.63;;
22441;SDS011;11388;54.456;9.752;2022-11-15T09:06:57;25.42;;;17.80;;
22441;SDS011;11388;54.456;9.752;2022-11-15T09:09:23;20.83;;;15.10;;
22441;SDS011;11388;54.456;9.752;2022-11-15T09:11:49;21.15;;;16.02;;
22441;SDS011;11388;54.456;9.752;2022-11-15T09:14:15;22.85;;;16.90;;
22441;SDS011;11388;54.456;9.752;2022-11-15T09:16:41;21.77;;;15.95;;
22441;SDS011;11388;54.456;9.752;2022-11-15T09:19:07;18.17;;;14.85;;
22441;SDS011;11388;54.456;9.752;2022-11-15T09:21:35;21.40;;;15.18;;
22441;SDS011;11388;54.456;9.752;2022-11-15T09:24:00;20.42;;;15.27;;
22441;SDS011;11388;54.456;9.752;2022-11-15T09:26:27;24.98;;;16.73;;
22441;SDS011;11388;54.456;9.752;2022-11-15T09:28:52;21.13;;;15.38;;
22441;SDS011;11388;54.456;9.752;2022-11-15T09:31:18;22.70;;;15.98;;
22441;SDS011;11388;54.456;9.752;2022-11-15T09:33:44;20.02;;;14.25;;
22441;SDS011;11388;54.456;9.752;2022-11-15T09:36:10;20.02;;;15.32;;
22441;SDS011;11388;54.456;9.752;2022-11-15T09:38:37;18.63;;;14.63;;
22441;SDS011;11388;54.456;9.752;2022-11-15T09:49:10;20.88;;;15.40;;
22441;SDS011;11388;54.456;9.752;2022-11-15T09:51:41;23.23;;;16.50;;
22441;SDS011;11388;54.456;9.752;2022-11-15T09:56:55;24.70;;;18.63;;
22441;SDS011;11388;54.456;9.752;2022-11-15T10:05:12;19.88;;;15.52;;
22441;SDS011;11388;54.456;9.752;2022-11-15T10:08:05;21.92;;;14.70;;
22441;SDS011;11388;54.456;9.752;2022-11-15T10:10:40;18.15;;;15.00;;
22441;SDS011;11388;54.456;9.752;2022-11-15T10:13:30;23.73;;;15.25;;
22441;SDS011;11388;54.456;9.752;2022-11-15T10:16:42;18.63;;;14.43;;
22441;SDS011;11388;54.456;9.752;2022-11-15T10:19:01;18.63;;;14.32;;
22441;SDS011;11388;54.456;9.752;2022-11-15T10:24:42;17.95;;;13.32;;
22441;SDS011;11388;54.456;9.752;2022-11-15T10:27:10;17.70;;;13.57;;
22441;SDS011;11388;54.456;9.752;2022-11-15T10:29:42;18.17;;;13.50;;
22441;SDS011;11388;54.456;9.752;2022-11-15T10:32:14;18.60;;;13.82;;
22441;SDS011;11388;54.456;9.752;2022-11-15T10:34:41;18.80;;;13.48;;
22441;SDS011;11388;54.456;9.752;2022-11-15T10:37:07;17.05;;;13.85;;
22441;SDS011;11388;54.456;9.752;2022-11-15T10:39:33;16.13;;;13.00;;
22441;SDS011;11388;54.456;9.752;2022-11-15T10:44:51;16.58;;;13.25;;
22441;SDS011;11388;54.456;9.752;2022-11-15T10:49:54;16.23;;;12.70;;
22441;SDS011;11388;54.456;9.752;2022-11-15T10:52:24;15.02;;;12.30;;
22441;SDS011;11388;54.456;9.752;2022-11-15T10:54:56;14.95;;;12.27;;
22441;SDS011;11388;54.456;9.752;2022-11-15T10:57:50;15.02;;;12.05;;
22441;SDS011;11388;54.456;9.752;2022-11-15T11:02:58;13.13;;;11.50;;
22441;SDS011;11388;54.456;9.752;2022-11-15T11:05:36;15.00;;;12.40;;
22441;SDS011;11388;54.456;9.752;2022-11-15T11:10:32;16.02;;;12.70;;
22441;SDS011;11388;54.456;9.752;2022-11-15T11:13:15;15.52;;;12.70;;
22441;SDS011;11388;54.456;9.752;2022-11-15T11:18:25;14.23;;;11.95;;
22441;SDS011;11388;54.456;9.752;2022-11-15T11:21:13;14.70;;;12.02;;
22441;SDS011;11388;54.456;9.752;2022-11-15T11:26:26;14.65;;;11.57;;
22441;SDS011;11388;54.456;9.752;2022-11-15T11:34:38;13.55;;;11.07;;
22441;SDS011;11388;54.456;9.752;2022-11-15T11:48:03;14.32;;;11.90;;
22441;SDS011;11388;54.456;9.752;2022-11-15T11:51:06;12.68;;;10.93;;
22441;SDS011;11388;54.456;9.752;2022-11-15T11:56:36;13.32;;;11.75;;
22441;SDS011;11388;54.456;9.752;2022-11-15T11:59:16;12.18;;;10.73;;
22441;SDS011;11388;54.456;9.752;2022-11-15T12:05:10;12.75;;;10.52;;
22441;SDS011;11388;54.456;9.752;2022-11-15T12:07:47;12.82;;;10.25;;
22441;SDS011;11388;54.456;9.752;2022-11-15T12:10:17;14.75;;;11.93;;
22441;SDS011;11388;54.456;9.752;2022-11-15T12:13:02;13.50;;;10.40;;
22441;SDS011;11388;54.456;9.752;2022-11-15T12:15:40;13.63;;;10.98;;
22441;SDS011;11388;54.456;9.752;2022-11-15T12:18:14;14.80;;;12.02;;
22441;SDS011;11388;54.456;9.752;2022-11-15T12:20:42;13.65;;;10.82;;
22441;SDS011;11388;54.456;9.752;2022-11-15T12:23:25;12.32;;;10.50;;
22441;SDS011;11388;54.456;9.752;2022-11-15T12:26:01;14.05;;;11.15;;
22441;SDS011;11388;54.456;9.752;2022-11-15T12:31:14;12.32;;;10.77;;
22441;SDS011;11388;54.456;9.752;2022-11-15T12:34:00;12.13;;;10.70;;
22441;SDS011;11388;54.456;9.752;2022-11-15T12:36:39;14.85;;;10.98;;
22441;SDS011;11388;54.456;9.752;2022-11-15T12:41:35;14.25;;;11.45;;
22441;SDS011;11388;54.456;9.752;2022-11-15T12:44:03;12.50;;;9.88;;
22441;SDS011;11388;54.456;9.752;2022-11-15T12:48:56;13.93;;;11.15;;
22441;SDS011;11388;54.456;9.752;2022-11-15T12:57:17;14.10;;;11.23;;
22441;SDS011;11388;54.456;9.752;2022-11-15T13:02:33;13.43;;;10.93;;
22441;SDS011;11388;54.456;9.752;2022-11-15T13:07:56;13.18;;;10.80;;
22441;SDS011;11388;54.456;9.752;2022-11-15T13:12:56;13.38;;;10.07;;
22441;SDS011;11388;54.456;9.752;2022-11-15T13:20:54;13.75;;;11.10;;
22441;SDS011;11388;54.456;9.752;2022-11-15T13:23:20;14.55;;;10.68;;
22441;SDS011;11388;54.456;9.752;2022-11-15T13:28:30;12.85;;;10.27;;
22441;SDS011;11388;54.456;9.752;2022-11-15T13:33:55;13.60;;;10.85;;
22441;SDS011;11388;54.456;9.752;2022-11-15T13:36:25;14.70;;;11.13;;
22441;SDS011;11388;54.456;9.752;2022-11-15T13:41:30;12.75;;;10.63;;
22441;SDS011;11388;54.456;9.752;2022-11-15T13:43:58;14.07;;;10.30;;
22441;SDS011;11388;54.456;9.752;2022-11-15T13:46:32;13.82;;;10.68;;
22441;SDS011;11388;54.456;9.752;2022-11-15T13:49:00;11.35;;;9.50;;
22441;SDS011;11388;54.456;9.752;2022-11-15T13:56:43;11.73;;;9.23;;
22441;SDS011;11388;54.456;9.752;2022-11-15T13:59:33;12.32;;;9.60;;
22441;SDS011;11388;54.456;9.752;2022-11-15T14:02:10;12.18;;;9.90;;
22441;SDS011;11388;54.456;9.752;2022-11-15T14:04:44;12.65;;;9.95;;
22441;SDS011;11388;54.456;9.752;2022-11-15T14:07:19;13.32;;;9.70;;
22441;SDS011;11388;54.456;9.752;2022-11-15T14:09:47;11.32;;;9.18;;
22441;SDS011;11388;54.456;9.752;2022-11-15T14:12:21;11.32;;;9.32;;
22441;SDS011;11388;54.456;9.752;2022-11-15T14:14:55;15.13;;;9.90;;
22441;SDS011;11388;54.456;9.752;2022-11-15T14:19:56;13.60;;;9.82;;
22441;SDS011;11388;54.456;9.752;2022-11-15T14:22:27;11.52;;;9.38;;
22441;SDS011;11388;54.456;9.752;2022-11-15T14:28:30;11.75;;;10.15;;
22441;SDS011;11388;54.456;9.752;2022-11-15T14:30:34;13.20;;;9.63;;
22441;SDS011;11388;54.456;9.752;2022-11-15T14:33:00;11.60;;;8.65;;
22441;SDS011;11388;54.456;9.752;2022-11-15T14:35:27;10.88;;;9.70;;
22441;SDS011;11388;54.456;9.752;2022-11-15T14:37:53;10.48;;;9.15;;
22441;SDS011;11388;54.456;9.752;2022-11-15T14:40:19;13.70;;;8.85;;
22441;SDS011;11388;54.456;9.752;2022-11-15T14:42:47;11.65;;;9.57;;
22441;SDS011;11388;54.456;9.752;2022-11-15T14:45:15;13.85;;;9.80;;
22441;SDS011;11388;54.456;9.752;2022-11-15T14:47:43;12.45;;;9.27;;
22441;SDS011;11388;54.456;9.752;2022-11-15T14:50:19;11.98;;;8.50;;
22441;SDS011;11388;54.456;9.752;2022-11-15T14:52:47;11.73;;;9.13;;
22441;SDS011;11388;54.456;9.752;2022-11-15T14:55:15;9.82;;;8.82;;
22441;SDS011;11388;54.456;9.752;2022-11-15T14:57:50;11.00;;;8.30;;
22441;SDS011;11388;54.456;9.752;2022-11-15T15:00:17;10.73;;;8.55;;
22441;SDS011;11388;54.456;9.752;2022-11-15T15:02:44;10.85;;;9.13;;
22441;SDS011;11388;54.456;9.752;2022-11-15T15:05:18;11.73;;;8.18;;
22441;SDS011;11388;54.456;9.752;2022-11-15T15:07:46;10.82;;;8.68;;
22441;SDS011;11388;54.456;9.752;2022-11-15T15:10:12;10.52;;;8.98;;
22441;SDS011;11388;54.456;9.752;2022-11-15T15:12:39;12.05;;;10.15;;
22441;SDS011;11388;54.456;9.752;2022-11-15T15:15:05;11.45;;;9.15;;
22441;SDS011;11388;54.456;9.752;2022-11-15T15:17:31;11.77;;;8.60;;
22441;SDS011;11388;54.456;9.752;2022-11-15T15:19:57;10.52;;;8.95;;
22441;SDS011;11388;54.456;9.752;2022-11-15T15:22:23;11.73;;;9.93;;
22441;SDS011;11388;54.456;9.752;2022-11-15T15:24:53;11.35;;;9.38;;
22441;SDS011;11388;54.456;9.752;2022-11-15T15:27:19;12.70;;;9.57;;
22441;SDS011;11388;54.456;9.752;2022-11-15T15:29:44;11.85;;;9.10;;
22441;SDS011;11388;54.456;9.752;2022-11-15T15:32:10;10.68;;;9.35;;
22441;SDS011;11388;54.456;9.752;2022-11-15T15:34:36;10.55;;;8.60;;
22441;SDS011;11388;54.456;9.752;2022-11-15T15:39:49;13.43;;;8.73;;
22441;SDS011;11388;54.456;9.752;2022-11-15T15:42:18;13.68;;;9.63;;
22441;SDS011;11388;54.456;9.752;2022-11-15T15:44:44;11.27;;;9.57;;
22441;SDS011;11388;54.456;9.752;2022-11-15T15:47:11;11.90;;;8.90;;
22441;SDS011;11388;54.456;9.752;2022-11-15T15:49:39;12.48;;;8.63;;
22441;SDS011;11388;54.456;9.752;2022-11-15T15:54:36;13.63;;;9.48;;
22441;SDS011;11388;54.456;9.752;2022-11-15T15:57:03;11.57;;;9.02;;
22441;SDS011;11388;54.456;9.752;2022-11-15T15:59:29;10.57;;;8.70;;
22441;SDS011;11388;54.456;9.752;2022-11-15T16:02:04;12.68;;;9.27;;
22441;SDS011;11388;54.456;9.752;2022-11-15T16:04:30;10.40;;;8.63;;
22441;SDS011;11388;54.456;9.752;2022-11-15T16:06:59;13.23;;;8.98;;
22441;SDS011;11388;54.456;9.752;2022-11-15T16:09:25;12.40;;;9.50;;
22441;SDS011;11388;54.456;9.752;2022-11-15T16:14:54;12.88;;;8.70;;
22441;SDS011;11388;54.456;9.752;2022-11-15T16:17:20;13.20;;;9.32;;
22441;SDS011;11388;54.456;9.752;2022-11-15T16:19:48;12.10;;;9.85;;
22441;SDS011;11388;54.456;9.752;2022-11-15T16:22:14;10.38;;;8.88;;
22441;SDS011;11388;54.456;9.752;2022-11-15T16:24:40;12.27;;;9.90;;
22441;SDS011;11388;54.456;9.752;2022-11-15T16:27:09;11.52;;;8.45;;
22441;SDS011;11388;54.456;9.752;2022-11-15T16:29:39;10.93;;;8.77;;
22441;SDS011;11388;54.456;9.752;2022-11-15T16:32:12;11.18;;;9.00;;
22441;SDS011;11388;54.456;9.752;2022-11-15T16:34:38;12.93;;;9.30;;
22441;SDS011;11388;54.456;9.752;2022-11-15T16:37:04;13.70;;;9.23;;
22441;SDS011;11388;54.456;9.752;2022-11-15T16:39:30;10.95;;;9.13;;
22441;SDS011;11388;54.456;9.752;2022-11-15T16:41:59;11.82;;;9.07;;
22441;SDS011;11388;54.456;9.752;2022-11-15T16:44:25;10.30;;;8.77;;
22441;SDS011;11388;54.456;9.752;2022-11-15T16:46:51;9.68;;;8.30;;
22441;SDS011;11388;54.456;9.752;2022-11-15T16:49:18;10.48;;;8.18;;
22441;SDS011;11388;54.456;9.752;2022-11-15T16:51:45;11.68;;;8.77;;
22441;SDS011;11388;54.456;9.752;2022-11-15T16:54:11;10.95;;;8.45;;
22441;SDS011;11388;54.456;9.752;2022-11-15T16:56:38;11.27;;;9.35;;
22441;SDS011;11388;54.456;9.752;2022-11-15T16:59:04;10.10;;;8.20;;
22441;SDS011;11388;54.456;9.752;2022-11-15T17:01:31;12.98;;;8.98;;
22441;SDS011;11388;54.456;9.752;2022-11-15T17:04:17;11.48;;;8.52;;
22441;SDS011;11388;54.456;9.752;2022-11-15T17:06:45;11.05;;;8.77;;
22441;SDS011;11388;54.456;9.752;2022-11-15T17:09:18;11.50;;;9.43;;
22441;SDS011;11388;54.456;9.752;2022-11-15T17:11:48;11.23;;;8.88;;
22441;SDS011;11388;54.456;9.752;2022-11-15T17:14:14;10.55;;;9.00;;